Flight Track Log - Related Links

Times and Time Zones

All times are in EDT time to prevent confusion due to time zone crossing. See the KCE1 flight status page for this flight to view local times or setup timezone preferences in your user account.

Time Position Orientation Groundspeed Altitude Reporting Facility
EDT Latitude Longitude Course Direction KTS MPH feet Rate Location/Type
Mon 05:06:17 PM 45.0640 -65.8980 166° South 311 358 12,300  Level FlightAware ADS-B
Mon 05:06:58 PM 45.0060 -65.8780 166° South 315 362 14,700 3,108 Climbing FlightAware ADS-B
Mon 05:07:40 PM 44.9450 -65.8570 166° South 336 387 16,600 2,341 Climbing FlightAware ADS-B
Mon 05:08:20 PM 44.8830 -65.8360 167° South 362 417 17,900 1,976 Climbing FlightAware ADS-B
Mon 05:09:02 PM 44.8130 -65.8120 166° South 381 438 19,300 1,976 Climbing FlightAware ADS-B
Mon 05:09:42 PM 44.7430 -65.7880 166° South 393 452 20,600 2,025 Climbing FlightAware ADS-B
Mon 05:10:22 PM 44.6700 -65.7640 167° South 403 464 22,000 2,025 Climbing FlightAware ADS-B
Mon 05:11:02 PM 44.5970 -65.7390 166° South 408 470 23,300 1,976 Climbing FlightAware ADS-B
Mon 05:11:44 PM 44.5210 -65.7130 166° South 412 474 24,700 2,023 Climbing FlightAware ADS-B
Mon 05:12:28 PM 44.4380 -65.6860 167° South 412 474 26,200 2,000 Climbing FlightAware ADS-B
Mon 05:13:05 PM 44.3690 -65.6630 167° South 410 472 27,400 1,976 Climbing FlightAware ADS-B
Mon 05:13:50 PM 44.2880 -65.6360 167° South 408 470 28,900 2,022 Climbing FlightAware ADS-B
Mon 05:14:34 PM 44.2070 -65.6090 167° South 405 466 30,400 1,953 Climbing FlightAware ADS-B
Mon 05:15:16 PM 44.1310 -65.5840 167° South 406 467 31,700 1,261 Climbing FlightAware ADS-B
Mon 05:15:52 PM 44.0820 -65.5670 166° South 32,100 1,000 Climbing FlightAware ADS-B
Mon 05:16:52 PM 43.9500 -65.5240 167° South 439 505 33,300 1,140 Climbing FlightAware ADS-B
Mon 05:17:32 PM 43.8680 -65.4970 167° South 447 514 34,000 472 Climbing FlightAware ADS-B
Mon 05:18:21 PM 43.7850 -65.4680 166° South 447 514 34,000 710 Level FlightAware ADS-B
Mon 05:19:05 PM 43.6850 -65.4360 167° South 460 529 35,100 733 Climbing FlightAware ADS-B
Mon 05:19:51 PM 43.6040 -65.4080 166° South 460 529 35,100  Level FlightAware ADS-B
Mon 05:20:25 PM 43.5450 -65.3880 166° South 460 529 35,100  Level FlightAware ADS-B
Mon 05:21:02 PM 43.4800 -65.3660 166° South 460 529 35,100  Level FlightAware ADS-B
Mon 05:21:50 PM 43.3960 -65.3370 166° South 460 529 35,100  Level FlightAware ADS-B
Mon 05:22:27 PM 43.3310 -65.3140 166° South 460 529 35,100  Level FlightAware ADS-B
Mon 05:23:14 PM 43.2480 -65.2860 166° South 460 529 35,100  Level FlightAware ADS-B
Mon 05:23:51 PM 43.1830 -65.2640 166° South 460 529 35,100  Level FlightAware ADS-B
Mon 05:24:39 PM 43.0990 -65.2350 166° South 460 529 35,100  Level FlightAware ADS-B
Mon 05:25:14 PM 43.0370 -65.2140 166° South 460 529 35,100  Level FlightAware ADS-B
Mon 05:25:50 PM 42.9740 -65.1930 166° South 460 529 35,100  Level FlightAware ADS-B
Mon 05:26:50 PM 42.8690 -65.1570 166° South 460 529 35,100  Level FlightAware ADS-B
Mon 05:27:27 PM 42.8040 -65.1350 166° South 460 529 35,100  Level FlightAware ADS-B
Mon 05:28:04 PM 42.7390 -65.1130 166° South 460 529 35,100 2,126 Level FlightAware ADS-B
Mon 05:29:51 PM 42.3800 -65.0210 169° South 43,000 2,548 Climbing FlightAware ADS-B
Mon 05:31:10 PM 42.2000 -64.9667 169° South 440 506 43,000  Level Moncton Center
Mon 05:32:10 PM 42.0833 -64.9167 162° South 440 506 43,000  Level Moncton Center
Mon 05:33:10 PM 41.9667 -64.8833 168° South 440 506 43,000  Level Moncton Center
Mon 05:34:10 PM 41.8500 -64.8667 174° South 440 506 43,000  Level Moncton Center
Mon 05:34:48 PM 41.9167 -64.8833 181° South 439 505 43,000  Level New York Oceanic (ODAPS)
Mon 05:36:10 PM 41.6000 -64.8833 181° South 440 506 43,000  Level Moncton Center
Mon 05:37:10 PM 41.4833 -64.8667 174° South 440 506 43,000  Level Moncton Center
Mon 05:38:10 PM 41.3500 -64.8833 185° South 440 506 43,000  Level Moncton Center
Mon 05:39:10 PM 41.2333 -64.8833 180° South 450 518 43,000  Level Moncton Center
Mon 05:40:10 PM 41.1000 -64.8833 180° South 450 518 43,000  Level Moncton Center
Mon 05:41:10 PM 40.9833 -64.8833 180° South 450 518 43,000  Level Moncton Center
Mon 05:42:10 PM 40.8667 -64.9000 186° South 450 518 43,000  Level Moncton Center
Mon 05:43:10 PM 40.7333 -64.9000 180° South 450 518 43,000  Level Moncton Center
Mon 05:44:10 PM 40.6167 -64.9000 180° South 450 518 43,000  Level Moncton Center
Mon 05:45:10 PM 40.5000 -64.9000 180° South 450 518 43,000  Level Moncton Center
Mon 05:47:00 PM 40.2777 -64.9057 181° South  Level FlightAware Approximate
Mon 05:54:00 PM 39.4289 -64.9271 181° South  Level FlightAware Approximate
Mon 05:55:00 PM 39.3077 -64.9302 181° South  Level FlightAware Approximate
Mon 05:56:00 PM 39.1864 -64.9332 181° South  Level FlightAware Approximate
Mon 05:57:00 PM 39.0652 -64.9362 181° South  Level FlightAware Approximate
Mon 05:58:00 PM 38.9439 -64.9391 181° South  Level FlightAware Approximate
Mon 05:59:00 PM 38.8227 -64.9421 181° South  Level FlightAware Approximate
Mon 06:00:00 PM 38.7014 -64.9451 181° South  Level FlightAware Approximate
Mon 06:01:00 PM 38.5802 -64.9481 181° South  Level FlightAware Approximate
Mon 06:02:00 PM 38.4597 -64.9601 191° South  Level FlightAware Approximate
Mon 06:02:19 PM 38.5000 -64.9667 190° South 439 505 43,000  Level New York Oceanic (ODAPS)
Mon 06:03:00 PM 38.3407 -64.9900 191° South  Level FlightAware Approximate
Mon 06:04:00 PM 38.2217 -65.0198 191° South  Level FlightAware Approximate
Mon 06:05:00 PM 38.1027 -65.0495 191° South  Level FlightAware Approximate
Mon 06:06:00 PM 37.9837 -65.0791 191° South  Level FlightAware Approximate
Mon 06:07:00 PM 37.8644 -65.1069 190° South  Level FlightAware Approximate
Mon 06:08:00 PM 37.7451 -65.1343 190° South  Level FlightAware Approximate
Mon 06:09:00 PM 37.5375 -65.1855 190° South 439 505 43,000  Level FlightAware Transoceanic
Mon 06:10:00 PM 37.4171 -65.2124 190° South 439 505 43,000  Level FlightAware Transoceanic
Mon 06:11:00 PM 37.2968 -65.2393 190° South 439 505 43,000  Level FlightAware Transoceanic
Mon 06:12:00 PM 37.1764 -65.2661 190° South 439 505 43,000  Level FlightAware Transoceanic
Mon 06:13:00 PM 37.0561 -65.2927 190° South 439 505 43,000  Level FlightAware Transoceanic
Mon 06:14:00 PM 36.9357 -65.3194 190° South 439 505 43,000  Level FlightAware Transoceanic
Mon 06:15:00 PM 36.8153 -65.3459 190° South 439 505 43,000  Level FlightAware Transoceanic
Mon 06:16:00 PM 36.6950 -65.3723 190° South 439 505 43,000  Level FlightAware Transoceanic
Mon 06:17:00 PM 36.5746 -65.3987 190° South 439 505 43,000  Level FlightAware Transoceanic
Mon 06:18:00 PM 36.4542 -65.4249 190° South 439 505 43,000  Level FlightAware Transoceanic
Mon 06:19:00 PM 36.3338 -65.4511 190° South 439 505 43,000  Level FlightAware Transoceanic
Mon 06:20:00 PM 36.2134 -65.4773 190° South 439 505 43,000  Level FlightAware Transoceanic
Mon 06:21:00 PM 36.0930 -65.5033 190° South 439 505 43,000  Level FlightAware Transoceanic
Mon 06:22:00 PM 35.9726 -65.5293 190° South 439 505 43,000  Level FlightAware Transoceanic
Mon 06:23:00 PM 35.8522 -65.5551 190° South 439 505 43,000  Level FlightAware Transoceanic
Mon 06:24:00 PM 35.7318 -65.5809 190° South 439 505 43,000  Level FlightAware Transoceanic
Mon 06:25:00 PM 35.6113 -65.6066 190° South 439 505 43,000  Level FlightAware Transoceanic
Mon 06:26:00 PM 35.4909 -65.6323 190° South 439 505 43,000  Level FlightAware Transoceanic
Mon 06:27:00 PM 35.3704 -65.6578 190° South 439 505 43,000  Level FlightAware Transoceanic
Mon 06:27:39 PM 35.2500 -65.6833 169° South 431 496 43,000  Level New York Oceanic (ODAPS)
Mon 06:28:00 PM 35.2500 -65.6833 169° South 439 505 43,000  Level FlightAware Transoceanic
Mon 06:29:00 PM 35.1250 -65.6523 169° South 439 505 43,000  Level FlightAware Transoceanic
Mon 06:30:00 PM 35.0000 -65.6214 169° South 439 505 43,000  Level FlightAware Transoceanic
Mon 06:31:00 PM 34.8749 -65.5905 169° South 439 505 43,000  Level FlightAware Transoceanic
Mon 06:32:00 PM 34.7499 -65.5598 169° South 439 505 43,000  Level FlightAware Transoceanic
Mon 06:33:00 PM 34.6249 -65.5291 169° South 439 505 43,000  Level FlightAware Transoceanic
Mon 06:34:00 PM 34.4105 -65.4767 169° South 431 496 43,000  Level FlightAware Transoceanic
Mon 06:35:00 PM 34.2905 -65.4476 169° South 431 496 43,000  Level FlightAware Transoceanic
Mon 06:36:00 PM 34.1705 -65.4185 169° South 431 496 43,000  Level FlightAware Transoceanic
Mon 06:37:00 PM 34.0506 -65.3895 169° South 431 496 43,000  Level FlightAware Transoceanic
Mon 06:38:00 PM 33.9306 -65.3605 169° South 431 496 43,000  Level FlightAware Transoceanic
Mon 06:39:00 PM 33.8106 -65.3317 169° South 431 496 43,000  Level FlightAware Transoceanic
Mon 06:40:00 PM 33.6906 -65.3029 169° South 431 496 43,000  Level FlightAware Transoceanic
Mon 06:41:00 PM 33.5706 -65.2743 169° South 431 496 43,000  Level FlightAware Transoceanic
Mon 06:42:00 PM 33.4506 -65.2457 169° South 431 496 43,000  Level FlightAware Transoceanic
Mon 06:43:00 PM 33.3306 -65.2171 169° South 431 496 43,000  Level FlightAware Transoceanic
Mon 06:44:00 PM 33.2105 -65.1887 169° South 431 496 43,000  Level FlightAware Transoceanic
Mon 06:45:00 PM 33.0905 -65.1603 169° South 431 496 43,000  Level FlightAware Transoceanic
Mon 06:46:00 PM 32.9705 -65.1320 169° South 431 496 43,000  Level FlightAware Transoceanic
Mon 06:47:00 PM 32.8504 -65.1038 169° South 431 496 43,000  Level FlightAware Transoceanic
Mon 06:48:00 PM 32.7304 -65.0757 169° South 431 496 43,000  Level FlightAware Transoceanic
Mon 06:49:00 PM 32.6103 -65.0476 169° South 431 496 43,000  Level FlightAware Transoceanic
Mon 06:50:00 PM 32.4903 -65.0196 169° South 431 496 43,000  Level FlightAware Transoceanic
Mon 06:51:00 PM 32.3702 -64.9917 169° South 431 496 43,000  Level FlightAware Transoceanic
Mon 06:52:00 PM 32.2501 -64.9639 169° South 431 496 43,000  Level FlightAware Transoceanic
Mon 06:53:00 PM 32.1301 -64.9361 169° South 431 496 43,000  Level FlightAware Transoceanic
Mon 06:54:00 PM 32.0100 -64.9084 169° South 431 496 43,000  Level FlightAware Transoceanic
Mon 06:55:00 PM 31.8899 -64.8808 169° South 431 496 43,000  Level FlightAware Transoceanic
Mon 06:56:00 PM 31.7698 -64.8533 169° South 431 496 43,000  Level FlightAware Transoceanic
Mon 06:57:00 PM 31.6497 -64.8258 169° South 431 496 43,000  Level FlightAware Transoceanic
Mon 06:58:00 PM 31.4520 -64.7807 169° South 449 517 43,000  Level FlightAware Transoceanic
Mon 06:59:00 PM 31.3294 -64.7529 169° South 449 517 43,000  Level FlightAware Transoceanic
Mon 07:00:00 PM 31.2068 -64.7251 169° South 449 517 43,000  Level FlightAware Transoceanic
Mon 07:01:00 PM 31.0841 -64.6974 169° South 449 517 43,000  Level FlightAware Transoceanic
Mon 07:02:00 PM 30.9615 -64.6697 169° South 449 517 43,000  Level FlightAware Transoceanic
Mon 07:03:00 PM 30.8388 -64.6422 169° South 449 517 43,000  Level FlightAware Transoceanic
Mon 07:04:00 PM 30.7162 -64.6147 169° South 449 517 43,000  Level FlightAware Transoceanic
Mon 07:05:00 PM 30.5935 -64.5872 169° South 449 517 43,000  Level FlightAware Transoceanic
Mon 07:06:00 PM 30.4709 -64.5599 169° South 449 517 43,000  Level FlightAware Transoceanic
Mon 07:07:00 PM 30.3482 -64.5326 169° South 449 517 43,000  Level FlightAware Transoceanic
Mon 07:08:00 PM 30.2255 -64.5054 169° South 449 517 43,000  Level FlightAware Transoceanic
Mon 07:09:00 PM 30.1028 -64.4782 169° South 449 517 43,000  Level FlightAware Transoceanic
Mon 07:10:00 PM 29.9802 -64.4511 169° South 449 517 43,000  Level FlightAware Transoceanic
Mon 07:11:00 PM 29.8575 -64.4241 169° South 449 517 43,000  Level FlightAware Transoceanic
Mon 07:12:00 PM 29.7348 -64.3971 169° South 449 517 43,000  Level FlightAware Transoceanic
Mon 07:13:00 PM 29.6121 -64.3702 169° South 449 517 43,000  Level FlightAware Transoceanic
Mon 07:14:00 PM 29.4894 -64.3434 169° South 449 517 43,000  Level FlightAware Transoceanic
Mon 07:15:00 PM 29.3667 -64.3167 169° South 449 517 43,000  Level FlightAware Transoceanic
Mon 07:15:37 PM 29.3667 -64.3167 169° South 447 514 43,000  Level New York Oceanic (ODAPS)
Mon 07:16:00 PM 29.2420 -64.2883 169° South 449 517 43,000  Level FlightAware Transoceanic
Mon 07:17:00 PM 29.1173 -64.2600 169° South 449 517 43,000  Level FlightAware Transoceanic
Mon 07:18:00 PM 28.9925 -64.2318 169° South 449 517 43,000  Level FlightAware Transoceanic
Mon 07:19:00 PM 28.8678 -64.2036 169° South 449 517 43,000  Level FlightAware Transoceanic
Mon 07:20:00 PM 28.7431 -64.1755 169° South 449 517 43,000  Level FlightAware Transoceanic
Mon 07:21:00 PM 28.6184 -64.1475 169° South 449 517 43,000  Level FlightAware Transoceanic
Mon 07:22:00 PM 28.3897 -64.0962 169° South 447 514 43,000  Level FlightAware Transoceanic
Mon 07:23:00 PM 28.2675 -64.0690 169° South 447 514 43,000  Level FlightAware Transoceanic
Mon 07:24:00 PM 28.1454 -64.0418 169° South 447 514 43,000  Level FlightAware Transoceanic
Mon 07:25:00 PM 28.0232 -64.0146 169° South 447 514 43,000  Level FlightAware Transoceanic
Mon 07:26:00 PM 27.9011 -63.9875 169° South 447 514 43,000  Level FlightAware Transoceanic
Mon 07:27:00 PM 27.7789 -63.9605 169° South 447 514 43,000  Level FlightAware Transoceanic
Mon 07:28:00 PM 27.6567 -63.9336 169° South 447 514 43,000  Level FlightAware Transoceanic
Mon 07:29:00 PM 27.5346 -63.9067 169° South 447 514 43,000  Level FlightAware Transoceanic
Mon 07:30:00 PM 27.4124 -63.8798 169° South 447 514 43,000  Level FlightAware Transoceanic
Mon 07:31:00 PM 27.2902 -63.8530 169° South 447 514 43,000  Level FlightAware Transoceanic
Mon 07:32:00 PM 27.1680 -63.8263 169° South 447 514 43,000  Level FlightAware Transoceanic
Mon 07:33:00 PM 27.0458 -63.7996 169° South 447 514 43,000  Level FlightAware Transoceanic
Mon 07:34:00 PM 26.9236 -63.7730 169° South 447 514 43,000  Level FlightAware Transoceanic
Mon 07:35:00 PM 26.8014 -63.7465 169° South 447 514 43,000  Level FlightAware Transoceanic
Mon 07:36:00 PM 26.6792 -63.7200 169° South 447 514 43,000  Level FlightAware Transoceanic
Mon 07:37:00 PM 26.5569 -63.6936 169° South 447 514 43,000  Level FlightAware Transoceanic
Mon 07:38:00 PM 26.4347 -63.6672 169° South 447 514 43,000  Level FlightAware Transoceanic
Mon 07:39:00 PM 26.3125 -63.6409 169° South 447 514 43,000  Level FlightAware Transoceanic
Mon 07:40:00 PM 26.1903 -63.6146 169° South 447 514 43,000  Level FlightAware Transoceanic
Mon 07:41:00 PM 26.0680 -63.5884 169° South 447 514 43,000  Level FlightAware Transoceanic
Mon 07:42:00 PM 25.9458 -63.5622 169° South 447 514 43,000  Level FlightAware Transoceanic
Mon 07:43:00 PM 25.8235 -63.5361 169° South 447 514 43,000  Level FlightAware Transoceanic
Mon 07:44:00 PM 25.7013 -63.5101 169° South 447 514 43,000  Level FlightAware Transoceanic
Mon 07:45:00 PM 25.5790 -63.4841 169° South 447 514 43,000  Level FlightAware Transoceanic
Mon 07:46:00 PM 25.4568 -63.4582 169° South 447 514 43,000  Level FlightAware Transoceanic
Mon 07:47:00 PM 25.3345 -63.4323 169° South 447 514 43,000  Level FlightAware Transoceanic
Mon 07:48:00 PM 25.2122 -63.4064 169° South 447 514 43,000  Level FlightAware Transoceanic
Mon 07:49:00 PM 25.0900 -63.3806 169° South 447 514 43,000  Level FlightAware Transoceanic
Mon 07:50:00 PM 24.9677 -63.3549 169° South 447 514 43,000  Level FlightAware Transoceanic
Mon 07:51:00 PM 24.8454 -63.3292 169° South 447 514 43,000  Level FlightAware Transoceanic
Mon 07:52:00 PM 24.7231 -63.3036 169° South 447 514 43,000  Level FlightAware Transoceanic
Mon 07:53:00 PM 24.6008 -63.2780 169° South 447 514 43,000  Level FlightAware Transoceanic
Mon 07:54:00 PM 24.4785 -63.2525 169° South 447 514 43,000  Level FlightAware Transoceanic
Mon 07:55:00 PM 24.3562 -63.2270 169° South 447 514 43,000  Level FlightAware Transoceanic
Mon 07:56:00 PM 24.2339 -63.2016 169° South 447 514 43,000  Level FlightAware Transoceanic
Mon 07:57:00 PM 24.1116 -63.1762 169° South 447 514 43,000  Level FlightAware Transoceanic
Mon 07:58:00 PM 23.9893 -63.1509 169° South 447 514 43,000  Level FlightAware Transoceanic
Mon 07:59:00 PM 23.8670 -63.1256 169° South 447 514 43,000  Level FlightAware Transoceanic
Mon 08:00:00 PM 23.7447 -63.1003 169° South 447 514 43,000  Level FlightAware Transoceanic
Mon 08:01:00 PM 23.6223 -63.0751 169° South 447 514 43,000  Level FlightAware Transoceanic
Mon 08:02:00 PM 23.5000 -63.0500 169° South 447 514 43,000  Level FlightAware Transoceanic
Mon 08:03:00 PM 23.3764 -63.0245 169° South 447 514 43,000  Level FlightAware Transoceanic
Mon 08:03:17 PM 23.5000 -63.0500 169° South 449 517 43,000  Level New York Oceanic (ODAPS)
Mon 08:04:00 PM 23.2529 -62.9990 169° South 447 514 43,000  Level FlightAware Transoceanic
Mon 08:05:00 PM 23.1293 -62.9736 169° South 447 514 43,000  Level FlightAware Transoceanic
Mon 08:06:00 PM 23.0057 -62.9482 169° South 447 514 43,000  Level FlightAware Transoceanic
Mon 08:07:00 PM 22.8821 -62.9229 169° South 447 514 43,000  Level FlightAware Transoceanic
Mon 08:08:00 PM 22.7585 -62.8976 169° South 447 514 43,000  Level FlightAware Transoceanic
Mon 08:09:00 PM 22.6350 -62.8724 169° South 449 517 43,000  Level FlightAware Transoceanic
Mon 08:10:00 PM 22.5114 -62.8472 169° South 449 517 43,000  Level FlightAware Transoceanic
Mon 08:11:00 PM 22.3878 -62.8220 169° South 449 517 43,000  Level FlightAware Transoceanic
Mon 08:12:00 PM 22.2642 -62.7969 169° South 449 517 43,000  Level FlightAware Transoceanic
Mon 08:13:00 PM 22.1406 -62.7719 169° South 449 517 43,000  Level FlightAware Transoceanic
Mon 08:14:00 PM 22.0169 -62.7469 169° South 449 517 43,000  Level FlightAware Transoceanic
Mon 08:15:00 PM 21.8933 -62.7219 169° South 449 517 43,000  Level FlightAware Transoceanic
Mon 08:16:00 PM 21.7697 -62.6970 169° South 449 517 43,000  Level FlightAware Transoceanic
Mon 08:17:00 PM 21.6461 -62.6721 169° South 449 517 43,000  Level FlightAware Transoceanic
Mon 08:18:00 PM 21.5225 -62.6472 169° South 449 517 43,000  Level FlightAware Transoceanic
Mon 08:19:00 PM 21.3988 -62.6224 169° South 449 517 43,000  Level FlightAware Transoceanic
Mon 08:20:00 PM 21.2752 -62.5977 169° South 449 517 43,000  Level FlightAware Transoceanic
Mon 08:21:00 PM 21.1516 -62.5730 169° South 449 517 43,000  Level FlightAware Transoceanic
Mon 08:22:00 PM 21.0279 -62.5483 169° South 449 517 43,000  Level FlightAware Transoceanic
Mon 08:23:00 PM 20.9043 -62.5237 169° South 449 517 43,000  Level FlightAware Transoceanic
Mon 08:24:00 PM 20.7806 -62.4991 169° South 449 517 43,000  Level FlightAware Transoceanic
Mon 08:25:00 PM 20.6570 -62.4745 169° South 449 517 43,000  Level FlightAware Transoceanic
Mon 08:26:00 PM 20.5333 -62.4500 170° South 449 517 43,000  Level FlightAware Transoceanic
Mon 08:27:00 PM 20.4119 -62.4263 170° South 449 517 43,000  Level FlightAware Transoceanic
Mon 08:28:00 PM 20.2906 -62.4027 170° South 449 517 43,000  Level FlightAware Transoceanic
Mon 08:29:00 PM 20.1692 -62.3791 170° South 449 517 43,000  Level FlightAware Transoceanic
Mon 08:29:59 PM 20.2000 -62.3833 170° South 620 713 43,000  Level San Juan Center
Mon 08:30:00 PM 20.0478 -62.3555 170° South 449 517 43,000  Level FlightAware Transoceanic
Mon 08:30:59 PM 20.0833 -62.3500 165° South 510 587 43,000  Level San Juan Center
Mon 08:31:00 PM 19.9264 -62.3320 170° South 449 517 43,000  Level FlightAware Transoceanic
Mon 08:32:00 PM 19.8050 -62.3084 170° South 449 517 43,000  Level FlightAware Transoceanic
Mon 08:32:00 PM 19.9667 -62.3333 172° South 460 529 43,000  Level San Juan Center
Mon 08:33:00 PM 19.6835 -62.2850 170° South 449 517 43,000  Level FlightAware Transoceanic
Mon 08:33:00 PM 19.8500 -62.3167 172° South 430 495 43,000  Level San Juan Center
Mon 08:34:00 PM 19.5621 -62.2616 170° South 449 517 43,000  Level FlightAware Transoceanic
Mon 08:34:00 PM 19.7333 -62.2833 165° South 450 518 43,000  Level San Juan Center
Mon 08:35:00 PM 19.4407 -62.2382 170° South 449 517 43,000  Level FlightAware Transoceanic
Mon 08:35:01 PM 19.6000 -62.2667 173° South 440 506 43,000  Level San Juan Center
Mon 08:36:01 PM 19.4667 -62.2333 167° South 470 541 43,000  Level San Juan Center
Mon 08:37:01 PM 19.3500 -62.2167 172° South 450 518 43,000  Level San Juan Center
Mon 08:39:02 PM 19.1167 -62.1667 169° South 430 495 43,000  Level San Juan Center
Mon 08:40:02 PM 19.0000 -62.1500 172° South 440 506 43,000  Level San Juan Center
Mon 08:42:02 PM 18.7500 -62.1000 169° South 460 529 43,000  Level San Juan Center
Mon 08:43:03 PM 18.6167 -62.0833 173° South 470 541 43,000  Level San Juan Center
Mon 08:44:03 PM 18.5000 -62.0500 165° South 450 518 43,000  Level San Juan Center
Mon 08:45:03 PM 18.3833 -62.0333 172° South 450 518 43,000  Level San Juan Center
Mon 08:46:04 PM 18.2500 -62.0000 167° South 460 529 43,000  Level San Juan Center
Mon 08:52:27 PM 17.5480 -61.7330 167° South 43,000  Level FlightAware ADS-B
Mon 08:53:11 PM 17.4800 -61.6960 153° Southeast 456 525 43,000  Level FlightAware ADS-B
Mon 08:53:47 PM 17.3900 -61.6510 154° Southeast 457 526 43,000  Level FlightAware ADS-B
Mon 08:54:34 PM 17.3000 -61.6050 154° Southeast 458 527 43,000  Level FlightAware ADS-B
Mon 08:55:15 PM 17.2170 -61.5620 154° Southeast 458 527 43,000  Level FlightAware ADS-B
Mon 08:55:55 PM 17.1470 -61.5260 154° Southeast 458 527 43,000  Level FlightAware ADS-B
Mon 08:56:36 PM 17.0630 -61.4840 154° Southeast 459 528 43,000  Level FlightAware ADS-B
Mon 08:57:19 PM 16.9750 -61.4380 153° Southeast 460 529 43,000  Level FlightAware ADS-B
Mon 08:58:04 PM 16.8970 -61.3980 154° Southeast 460 529 43,000  Level FlightAware ADS-B
Mon 08:58:48 PM 16.8080 -61.3530 154° Southeast 461 531 43,000  Level FlightAware ADS-B
Mon 08:59:27 PM 16.7310 -61.3140 154° Southeast 462 532 43,000 286 Level FlightAware ADS-B
Mon 09:00:12 PM 16.6080 -61.2510 154° Southeast 463 533 43,400 282 Climbing FlightAware ADS-B
Mon 09:00:52 PM 16.5300 -61.2110 154° Southeast 464 534 43,400  Level FlightAware ADS-B
Mon 09:01:33 PM 16.4520 -61.1710 154° Southeast 464 534 43,400  Level FlightAware ADS-B
Mon 09:02:17 PM 16.3660 -61.1270 154° Southeast 465 535 43,400  Level FlightAware ADS-B
Mon 09:03:08 PM 16.2710 -61.0790 154° Southeast 466 536 43,400  Level FlightAware ADS-B
Mon 09:03:47 PM 16.1890 -61.0380 154° Southeast 467 537 43,400  Level FlightAware ADS-B
Mon 09:04:28 PM 16.1120 -60.9990 154° Southeast 467 537 43,400  Level FlightAware ADS-B
Mon 09:05:17 PM 16.0220 -60.9530 154° Southeast 468 539 43,400 -264 Level FlightAware ADS-B
Mon 09:05:59 PM 15.9800 -60.9320 154° Southeast 468 539 43,000 -289 Descending FlightAware ADS-B
Mon 09:06:40 PM 15.9060 -60.8950 154° Southeast 469 540 43,000  Level FlightAware ADS-B
Mon 09:07:19 PM 15.8300 -60.8560 154° Southeast 468 539 43,000  Level FlightAware ADS-B
Mon 09:08:00 PM 15.7530 -60.8170 154° Southeast 468 539 43,000  Level FlightAware ADS-B
Mon 09:08:39 PM 15.6770 -60.7790 154° Southeast 468 539 43,000  Level FlightAware ADS-B
Mon 09:09:24 PM 15.5890 -60.7350 154° Southeast 467 537 43,000  Level FlightAware ADS-B
Mon 09:10:04 PM 15.5100 -60.6950 154° Southeast 465 535 43,000  Level FlightAware ADS-B
Mon 09:10:48 PM 15.4310 -60.6550 154° Southeast 463 533 43,000  Level FlightAware ADS-B
Mon 09:11:27 PM 15.3560 -60.6170 154° Southeast 462 532 43,000  Level FlightAware ADS-B
Mon 09:12:01 PM 15.2900 -60.5840 154° Southeast 462 532 43,000 -390 Level FlightAware ADS-B
Mon 09:12:44 PM 15.2020 -60.5400 154° Southeast 461 531 42,500 -878 Descending FlightAware ADS-B
Mon 09:13:23 PM 15.1350 -60.5060 154° Southeast 454 522 41,800 -1,465 Descending FlightAware ADS-B
Mon 09:14:10 PM 15.0400 -60.4580 154° Southeast 457 526 40,400 -1,773 Descending FlightAware ADS-B
Mon 09:14:51 PM 14.9680 -60.4220 154° Southeast 459 528 39,200 -1,852 Descending FlightAware ADS-B
Mon 09:15:31 PM 14.8990 -60.3880 155° Southeast 457 526 37,900 -1,884 Descending FlightAware ADS-B
Mon 09:16:17 PM 14.8140 -60.3460 154° Southeast 451 519 36,500 -1,902 Descending FlightAware ADS-B
Mon 09:16:53 PM 14.7460 -60.3120 154° Southeast 450 518 35,300 -2,000 Descending FlightAware ADS-B
Mon 09:17:44 PM 14.6540 -60.2650 154° Southeast 453 521 33,600 -2,103 Descending FlightAware ADS-B
Mon 09:18:30 PM 14.5640 -60.2210 155° Southeast 462 532 31,900 -2,000 Descending FlightAware ADS-B
Mon 09:19:05 PM 14.5110 -60.1940 154° Southeast 462 532 30,900 -2,137 Descending FlightAware ADS-B
Mon 09:19:43 PM 14.4300 -60.1540 154° Southeast 458 527 29,300 -2,169 Descending FlightAware ADS-B
Mon 09:20:28 PM 14.3590 -60.1190 154° Southeast 457 526 27,900 -1,962 Descending FlightAware ADS-B
Mon 09:21:27 PM 14.2480 -60.0680 156° South 455 524 25,900 -2,084 Descending FlightAware ADS-B
Mon 09:22:03 PM 14.1800 -60.0440 161° South 452 520 24,600 -2,024 Descending FlightAware ADS-B
Mon 09:22:50 PM 14.0990 -60.0140 160° South 445 512 23,100 -2,143 Descending FlightAware ADS-B
Mon 09:23:27 PM 14.0240 -59.9880 161° South 429 494 21,600 -1,462 Descending FlightAware ADS-B
Mon 09:24:08 PM 13.9670 -59.9680 161° South 422 486 21,200 -2,025 Descending FlightAware ADS-B
Mon 09:24:47 PM 13.8990 -59.9450 162° South 404 465 18,900 -1,778 Descending FlightAware ADS-B
Mon 09:25:29 PM 13.8390 -59.9240 161° South 405 466 18,800 -77 Descending FlightAware ADS-B
Mon 09:26:05 PM 13.7850 -59.9050 161° South 405 466 18,800  Level FlightAware ADS-B
Mon 09:26:41 PM 13.7310 -59.8860 161° South 405 466 18,800  Level FlightAware ADS-B
Mon 09:27:29 PM 13.6590 -59.8600 161° South 405 466 18,800  Level FlightAware ADS-B
Mon 09:28:05 PM 13.6040 -59.8410 161° South 405 466 18,800 -4,009 Level FlightAware ADS-B
Mon 09:29:48 PM 13.2860 -59.7440 163° South 6,900 -4,807 Descending FlightAware ADS-B
Mon 09:31:06 PM 13.1810 -59.7080 162° South 298 343 4,300 -2,000 Descending FlightAware ADS-B
Mon 09:31:36 PM 13.1470 -59.6840 145° Southeast 289 333 3,300 -2,111 Descending FlightAware ADS-B
Mon 09:32:00 PM 13.1180 -59.6650 147° Southeast 283 326 2,400 -1,444 Descending FlightAware ADS-B
Mon 09:32:30 PM 13.0890 -59.6380 138° Southeast 259 298 2,000 -625 Descending FlightAware ADS-B
Mon 09:32:48 PM 13.0760 -59.6220 130° Southeast 231 266 1,900 -140 Descending FlightAware ADS-B
Mon 09:33:13 PM 13.0630 -59.6050 128° Southeast 207 238 1,900 -286 Level FlightAware ADS-B
Mon 09:33:30 PM 13.0550 -59.5870 115° Southeast 196 226 1,700 -894 Descending FlightAware ADS-B
Mon 09:34:00 PM 13.0580 -59.5630 83° East 159 183 1,200 -900 Descending FlightAware ADS-B
Mon 09:34:30 PM 13.0620 -59.5440 78° East 126 145 800 -667 Descending FlightAware ADS-B
Mon 09:34:54 PM 13.0650 -59.5300 78° East 122 140 600 -556 Descending FlightAware ADS-B
Mon 09:35:24 PM 13.0690 -59.5150 75° East 114 131 300 -571 Descending FlightAware ADS-B
Mon 09:35:36 PM 13.0700 -59.5100 78° East 116 133 200 57 Descending FlightAware ADS-B
Mon 09:36:06 PM 13.0740 -59.4950 75° East 68 78 59 Descending FlightAware ADS-B
Mon 09:36:32 PM 13.0760 -59.4880 74° East 68 78 65 Level FlightAware ADS-B
Mon 09:39:00 PM 13.0746 -59.4925 90° East  Level Estimated
Mon 09:40:00 PM 13.0746 -59.4925 90° East  Level Estimated
Mon 09:41:00 PM 13.0746 -59.4925 90° East  Level Estimated
Mon 09:42:00 PM 13.0746 -59.4925 90° East  Level Estimated
Mon 09:43:00 PM 13.0746 -59.4925 90° East  Level Estimated
Mon 09:44:00 PM 13.0746 -59.4925 90° East  Level Estimated
Mon 09:45:00 PM 13.0746 -59.4925 90° East  Level Estimated
Mon 09:46:00 PM 13.0746 -59.4925 90° East  Level Estimated
Mon 09:47:00 PM 13.0746 -59.4925 90° East  Level Estimated
Mon 09:48:00 PM 13.0746 -59.4925 90° East  Level Estimated
Mon 09:49:00 PM 13.0746 -59.4925 90° East  Level Estimated
Mon 09:50:00 PM 13.0746 -59.4925 90° East  Level Estimated
Mon 09:51:00 PM 13.0746 -59.4925 90° East  Level Estimated
Mon 09:52:00 PM 13.0746 -59.4925 90° East  Level Estimated
Mon 09:53:00 PM 13.0746 -59.4925 90° East  Level Estimated
Mon 09:54:00 PM 13.0746 -59.4925 90° East  Level Estimated
Mon 09:55:00 PM 13.0746 -59.4925 90° East  Level Estimated
Mon 09:56:00 PM 13.0746 -59.4925 90° East  Level Estimated
Mon 09:57:00 PM 13.0746 -59.4925 90° East  Level Estimated
Mon 09:58:00 PM 13.0746 -59.4925 90° East  Level Estimated
Mon 09:59:00 PM 13.0746 -59.4925 90° East  Level Estimated
Mon 10:00:00 PM 13.0746 -59.4925 90° East  Level Estimated
Mon 10:01:00 PM 13.0746 -59.4925 90° East  Level Estimated
Mon 10:02:00 PM 13.0746 -59.4925 90° East  Level Estimated
Mon 10:03:00 PM 13.0746 -59.4925 90° East  Level Estimated
Mon 10:04:00 PM 13.0746 -59.4925 90° East  Level Estimated
Mon 10:05:00 PM 13.0746 -59.4925 90° East  Level Estimated
Mon 10:06:00 PM 13.0746 -59.4925 90° East  Level Estimated
Mon 10:07:00 PM 13.0746 -59.4925 90° East  Level Estimated
Mon 10:08:00 PM 13.0746 -59.4925 90° East  Level Estimated
Mon 10:09:00 PM 13.0746 -59.4925 90° East  Level Estimated
Mon 10:10:00 PM 13.0746 -59.4925 90° East  Level Estimated
Mon 10:11:00 PM 13.0746 -59.4925 90° East  Level Estimated
Mon 10:12:00 PM 13.0746 -59.4925 90° East  Level Estimated
Mon 10:13:00 PM 13.0746 -59.4925 90° East  Level Estimated
Mon 10:14:00 PM 13.0746 -59.4925 90° East  Level Estimated
Mon 10:15:00 PM 13.0746 -59.4925 90° East  Level Estimated
Mon 10:15:58 PM 13.0830 -59.4480 80° East 207 238 2,600  Level FlightAware ADS-B
Mon 10:16:28 PM 13.0890 -59.4190 78° East 223 257 4,500 3,667 Climbing FlightAware ADS-B
Mon 10:16:52 PM 13.1010 -59.3970 61° Northeast 236 272 5,900 3,571 Climbing FlightAware ADS-B
Mon 10:17:10 PM 13.1200 -59.3900 20° North 249 287 7,000 3,857 Climbing FlightAware ADS-B
Mon 10:17:34 PM 13.1520 -59.3950 351° North 267 307 8,600 3,500 Climbing FlightAware ADS-B
Mon 10:18:22 PM 13.1980 -59.4320 322° Northwest 296 341 11,200 3,067 Climbing FlightAware ADS-B
Mon 10:19:04 PM 13.2360 -59.4810 309° West 318 366 13,200 2,467 Climbing FlightAware ADS-B
Mon 10:19:52 PM 13.2830 -59.5410 309° West 350 403 14,900 2,333 Climbing FlightAware ADS-B
Mon 10:20:34 PM 13.3280 -59.5950 311° West 358 412 16,700 2,308 Climbing FlightAware ADS-B
Mon 10:21:10 PM 13.3670 -59.6410 311° West 368 423 17,900 1,933 Climbing FlightAware ADS-B
Mon 10:22:04 PM 13.4460 -59.6920 328° Northwest 384 442 19,600 1,875 Climbing FlightAware ADS-B
Mon 10:22:46 PM 13.5140 -59.7300 331° Northwest 400 460 20,900 1,379 Climbing FlightAware ADS-B
Mon 10:23:31 PM 13.5720 -59.7630 331° Northwest 404 465 21,600 1,484 Climbing FlightAware ADS-B
Mon 10:24:19 PM 13.5730 -59.7630 360° North 411 473 23,200 1,000 Climbing FlightAware ADS-B
Mon 10:25:07 PM 13.6400 -59.8020 331° Northwest 411 473 23,200 750 Level FlightAware ADS-B
Mon 10:26:03 PM 13.7280 -59.8510 332° Northwest 413 475 24,500 2,471 Climbing FlightAware ADS-B
Mon 10:26:49 PM 13.8410 -59.9140 332° Northwest 414 476 27,400 2,259 Climbing FlightAware ADS-B
Mon 10:27:28 PM 13.8970 -59.9460 331° Northwest 415 478 27,700 1,267 Climbing FlightAware ADS-B
Mon 10:28:19 PM 13.9930 -60.0000 331° Northwest 440 506 29,300 1,630 Climbing FlightAware ADS-B
Mon 10:28:49 PM 14.0450 -60.0290 332° Northwest 449 517 29,900 1,143 Climbing FlightAware ADS-B
Mon 10:29:43 PM 14.1320 -60.0790 331° Northwest 459 528 30,900 1,273 Climbing FlightAware ADS-B
Mon 10:30:28 PM 14.2370 -60.1380 331° Northwest 468 539 32,000 1,291 Climbing FlightAware ADS-B
Mon 10:31:02 PM 14.3000 -60.1730 332° Northwest 471 542 32,600 1,263 Climbing FlightAware ADS-B
Mon 10:31:44 PM 14.3940 -60.2240 332° Northwest 476 548 33,600 1,200 Climbing FlightAware ADS-B
Mon 10:32:22 PM 14.4560 -60.2540 335° Northwest 475 547 34,200 1,143 Climbing FlightAware ADS-B
Mon 10:33:08 PM 14.5580 -60.3020 336° Northwest 476 548 35,200 1,333 Climbing FlightAware ADS-B
Mon 10:33:52 PM 14.6470 -60.3440 335° Northwest 475 547 36,200 1,111 Climbing FlightAware ADS-B
Mon 10:34:29 PM 14.6980 -60.3680 336° Northwest 475 547 36,700 1,000 Climbing FlightAware ADS-B
Mon 10:35:16 PM 14.7860 -60.4100 335° Northwest 472 543 37,600 1,139 Climbing FlightAware ADS-B
Mon 10:35:48 PM 14.8480 -60.4400 335° Northwest 469 540 38,200 1,231 Climbing FlightAware ADS-B
Mon 10:36:34 PM 14.9430 -60.4850 335° Northwest 463 533 39,200 1,256 Climbing FlightAware ADS-B
Mon 10:37:14 PM 15.0250 -60.5240 335° Northwest 454 522 40,000 1,187 Climbing FlightAware ADS-B
Mon 10:38:05 PM 15.1220 -60.5700 335° Northwest 442 509 41,000 1,176 Climbing FlightAware ADS-B
Mon 10:40:00 PM 14.9484 -60.5398 152° Southeast  Level FlightAware Approximate
Mon 10:41:00 PM 14.8503 -60.4853 152° Southeast  Level FlightAware Approximate
Mon 10:42:00 PM 14.7523 -60.4308 152° Southeast  Level FlightAware Approximate
Mon 10:43:00 PM 14.6539 -60.3770 154° Southeast  Level FlightAware Approximate
Mon 10:44:00 PM 14.5555 -60.3233 150° Southeast  Level FlightAware Approximate
Mon 10:45:00 PM 14.4599 -60.2645 149° Southeast  Level FlightAware Approximate
Mon 10:46:00 PM 14.3642 -60.2057 151° Southeast  Level FlightAware Approximate
Mon 10:47:00 PM 14.2669 -60.1501 151° Southeast  Level FlightAware Approximate
Mon 10:48:00 PM 14.1695 -60.0944 151° Southeast  Level FlightAware Approximate
Mon 10:49:00 PM 14.0719 -60.0391 151° Southeast  Level FlightAware Approximate
Mon 10:50:00 PM 13.9743 -59.9839 151° Southeast  Level FlightAware Approximate
Mon 10:51:00 PM 13.8767 -59.9288 151° Southeast  Level FlightAware Approximate
Mon 10:52:00 PM 13.7791 -59.8737 151° Southeast  Level FlightAware Approximate
Mon 10:53:00 PM 13.6812 -59.8192 152° Southeast  Level FlightAware Approximate
Mon 10:54:00 PM 13.5831 -59.7650 152° Southeast  Level FlightAware Approximate
Mon 10:55:00 PM 13.4848 -59.7114 152° Southeast  Level FlightAware Approximate
Mon 10:56:00 PM 13.3866 -59.6574 152° Southeast  Level FlightAware Approximate
Mon 10:57:00 PM 13.2887 -59.6030 152° Southeast  Level FlightAware Approximate

Login

Don't have an account? Register now (free) for customized features, flight alerts, and more!